Weather observations for the past three days for
Quillayute, Quillayute State Airport
Imperial (Metric)
Date Time (pdt) Wind (mph) Vis. (mi.) Weather Sky Cond. Temperature (ºF) Relative Humidity Wind Chill (°F) Heat Index (°F) Pressure Precipitation (in)
Air Dwpt 6 hour altimeter (in) sea level (mb) 1 hr 3 hr 6 hr
Max. Min.
06 09:53 SW 3 4.00 Fog/Mist OVC013 51.1 46.9 86% 30.14 1020.5
06 08:53 Vrbl 3 10.00 Overcast OVC014 52 46 80% 30.13 1020.4
06 07:53 Calm 10.00 Overcast OVC013 51.1 46.9 86% 30.13 1020.1
06 06:53 SW 5 10.00 Overcast OVC013 51.1 46.9 86% 30.1 1019.4
06 03:53 Calm 10.00 Overcast OVC014 51.1 46 83% 30.08 1018.8
06 02:53 NW 3 10.00 Overcast OVC013 51.1 46.9 86% 30.08 1018.6
06 01:53 W 3 10.00 Overcast OVC013 51.1 46.9 86% 30.07 1018.3
06 00:53 W 6 10.00 Overcast OVC011 51.1 46.9 86% 30.07 1018.2
05 23:53 W 3 10.00 Overcast OVC011 52 48 86% 30.05 1017.7
05 22:53 S 3 10.00 Overcast OVC011 52 48 57 52 86% 30.05 1017.5
05 21:53 W 3 10.00 Overcast OVC012 52 48 86% 30.05 1017.5
05 20:53 W 5 10.00 Overcast OVC014 52 48 86% 30.03 1017.1
05 19:53 Vrbl 5 10.00 Overcast OVC014 54 48.9 83% 30.01 1016.4
05 18:53 W 6 10.00 Overcast OVC013 54 48.9 83% 30.02 1016.4
05 17:53 W 7 10.00 Overcast OVC015 55 48.9 80% 30.02 1016.4
05 16:53 Vrbl 6 10.00 Overcast OVC018 57 48.9 62.1 55 74% 30.02 1016.6
05 15:53 W 6 10.00 Overcast OVC020 57.9 48.9 72% 30.03 1017.0
05 14:53 SW 9 10.00 Overcast OVC021 60.1 48.9 67% 30.04 1017.3
05 13:53 Calm 10.00 Overcast OVC020 60.1 50 70% 30.04 1017.1
05 12:53 SW 9 10.00 Overcast OVC019 57.9 48.9 72% 30.04 1017.2
05 11:53 S 6 10.00 Overcast OVC015 55.9 48.9 77% 30.03 1017.0
05 10:53 S 7 10.00 Overcast OVC014 55 48.9 55 52 80% 30.02 1016.6
05 09:53 SW 6 10.00 Overcast OVC014 54 48 80% 30.01 1016.3
05 08:53 SW 3 10.00 Overcast OVC011 53.1 48.9 86% 30 1016.0
05 07:53 Vrbl 3 10.00 Overcast OVC011 53.1 48.9 86% 29.99 1015.4
05 06:53 Calm 10.00 Overcast OVC013 52 48.9 89% 29.97 1014.7
05 05:53 Calm 10.00 Overcast OVC010 52 48.9 89% 29.96 1014.4
05 04:53 S 3 10.00 Overcast OVC008 52 48.9 53.1 52 89% 29.95 1014.3
05 03:53 Vrbl 5 10.00 Overcast OVC007 52 50 93% 29.94 1013.8
05 02:53 S 7 10.00 Overcast OVC007 52 50 93% 29.94 1013.7
05 01:53 S 5 10.00 Overcast OVC008 53.1 50 89% 29.93 1013.6
05 00:53 Vrbl 3 10.00 Overcast OVC008 53.1 50 89% 29.93 1013.6
04 23:53 Vrbl 5 10.00 Overcast OVC008 53.1 50 89% 29.92 1013.2
04 22:53 S 6 10.00 Overcast OVC008 53.1 50 59 53.1 89% 29.92 1013.2
04 21:53 Vrbl 3 10.00 Overcast OVC009 53.1 50 89% 29.91 1012.9
04 20:53 Vrbl 5 10.00 Overcast OVC009 53.1 50 89% 29.9 1012.6
04 19:53 Vrbl 5 10.00 Overcast OVC009 54 50 87% 29.89 1012.2
04 18:53 SW 9 10.00 Overcast OVC010 55 50 83% 29.89 1012.2
04 17:53 S 8 10.00 Overcast OVC011 57 51.1 81% 29.9 1012.4
04 16:53 S 10 10.00 Fair CLR 60.1 51.1 64 59 72% 29.9 1012.6
04 15:53 S 14 G 22 10.00 Fair CLR 61 51.1 70% 29.91 1012.7
04 14:53 SW 10 G 23 10.00 Fair CLR 62.1 51.1 67% 29.91 1012.9
04 13:53 S 13 G 22 10.00 Fair CLR 62.1 52 70% 29.91 1013.0
04 12:53 SW 14 G 22 10.00 A Few Clouds FEW015 63 53.1 70% 29.91 1012.7
04 11:53 S 13 G 22 10.00 Fair CLR 63 53.1 70% 29.9 1012.4
04 10:53 S 10 G 18 10.00 Fair CLR 62.1 52 62.1 50 70% 29.89 1012.1
04 09:53 S 10 G 21 10.00 Fair CLR 60.1 52 75% 29.88 1011.8
04 08:53 S 12 G 18 10.00 Partly Cloudy SCT008 57 51.1 81% 29.88 1011.7
04 07:53 S 8 10.00 A Few Clouds FEW007 54 50 87% 29.86 1011.1
04 06:53 Vrbl 3 7.00 Fair CLR 52 48.9 89% 29.84 1010.5
04 05:53 Calm 7.00 Fair CLR 51.1 48.9 92% 29.83 1009.9
04 04:53 SE 3 10.00 Fair CLR 50 45 61 48.9 83% 29.82 1009.7
04 03:53 E 7 10.00 Fair CLR 53.1 44.1 72% 29.8 1009.0
04 02:53 Calm 10.00 Fair CLR 50 44.1 80% 29.8 1009.0
04 01:53 E 3 10.00 Fair CLR 53.1 45 74% 29.8 1009.0
04 00:53 Calm 10.00 Fair CLR 52 44.1 75% 29.8 1009.0
03 23:53 Calm 10.00 Fair CLR 55.9 43 62% 29.8 1008.9
03 22:53 Calm 10.00 Fair CLR 61 43 82 60.1 52% 29.8 1009.1
03 21:53 N 8 10.00 Fair CLR 66 43 43% 29.8 1009.2
03 20:53 N 7 10.00 Fair CLR 66.9 44.1 44% 29.8 1008.9
03 19:53 N 5 10.00 Fair CLR 73.9 45 36% 29.79 1008.7
03 18:53 NW 9 10.00 Fair CLR 77 44.1 31% 78 29.8 1009.2
03 17:53 NW 8 10.00 Fair CLR 80.1 43 27% 79 29.82 1009.6
03 16:53 NW 7 10.00 Fair CLR 82 44.1 82.9 73 26% 80 29.83 1010.0
03 15:53 W 12 10.00 Fair CLR 80.1 48 33% 79 29.85 1010.6
03 14:53 SW 8 10.00 Fair CLR 80.1 52 38% 80 29.86 1011.2
03 13:53 SW 10 10.00 Fair CLR 77 48.9 37% 78 29.88 1011.6
03 12:53 SW 9 10.00 Fair CLR 75.9 50 40% 78 29.89 1012.0
03 11:53 W 9 10.00 Fair CLR 73.9 51.1 45% 29.89 1012.1
03 10:53 NW 6 10.00 Fair CLR 77 50 77 45 39% 78 29.9 1012.5
Date Time (pdt) Wind (mph) Vis. (mi.) Weather Sky Cond. Air Dwpt Max. Min. Relative Humidity Wind Chill (°F) Heat Index (°F) altimeter (in) sea level (mb) 1 hr 3 hr 6 hr
6 hour
Temperature (ºF) Pressure Precipitation (in)